createdAt,value
2022-08-30T00:01:59.365Z,17.00
2022-08-30T00:04:26.352Z,16.90
2022-08-30T00:06:53.213Z,16.90
2022-08-30T00:09:19.875Z,16.80
2022-08-30T00:11:46.464Z,16.80
2022-08-30T00:14:13.138Z,16.80
2022-08-30T00:16:39.766Z,16.80
2022-08-30T00:19:06.707Z,16.80
2022-08-30T00:21:33.379Z,16.80
2022-08-30T00:24:00.010Z,16.70
2022-08-30T00:26:26.591Z,16.70
2022-08-30T00:28:53.259Z,16.70
2022-08-30T00:31:19.883Z,16.70
2022-08-30T00:33:46.550Z,16.70
2022-08-30T00:36:13.188Z,16.60
2022-08-30T00:38:39.741Z,16.60
2022-08-30T00:41:06.961Z,16.60
2022-08-30T00:43:36.787Z,16.60
2022-08-30T00:46:04.403Z,16.60
2022-08-30T00:48:32.295Z,16.50
2022-08-30T00:51:01.186Z,16.50
2022-08-30T00:53:34.020Z,16.50
2022-08-30T00:56:01.536Z,16.50
2022-08-30T00:58:30.755Z,16.50
2022-08-30T01:00:58.240Z,16.40
2022-08-30T01:03:25.025Z,16.40
2022-08-30T01:05:51.778Z,16.40
2022-08-30T01:08:20.394Z,16.40
2022-08-30T01:10:46.985Z,16.30
2022-08-30T01:13:14.515Z,16.30
2022-08-30T01:15:42.701Z,16.30
2022-08-30T01:18:11.434Z,16.30
2022-08-30T01:20:51.896Z,16.30
2022-08-30T01:23:19.898Z,16.30
2022-08-30T01:25:49.552Z,16.30
2022-08-30T01:28:21.037Z,16.30
2022-08-30T01:30:47.766Z,16.30
2022-08-30T01:33:14.749Z,16.20
2022-08-30T01:35:59.175Z,16.20
2022-08-30T01:38:27.384Z,16.20
2022-08-30T01:41:20.828Z,16.20
2022-08-30T01:43:48.466Z,16.20
2022-08-30T01:46:15.741Z,16.20
2022-08-30T01:48:47.340Z,16.20
2022-08-30T01:51:21.913Z,16.20
2022-08-30T01:53:48.487Z,16.10
2022-08-30T01:56:15.561Z,16.20
2022-08-30T01:58:42.267Z,16.20
2022-08-30T02:01:12.553Z,16.20
2022-08-30T02:03:39.977Z,16.10
2022-08-30T02:06:07.761Z,16.20
2022-08-30T02:08:34.716Z,16.10
2022-08-30T02:11:01.729Z,16.10
2022-08-30T02:13:28.615Z,16.10
2022-08-30T02:15:55.538Z,16.10
2022-08-30T02:18:23.430Z,16.10
2022-08-30T02:20:50.324Z,16.10
2022-08-30T02:23:17.380Z,16.10
2022-08-30T02:25:44.782Z,16.20
2022-08-30T02:28:11.374Z,16.20
2022-08-30T02:30:42.253Z,16.20
2022-08-30T02:33:08.902Z,16.20
2022-08-30T02:35:35.529Z,16.20
2022-08-30T02:38:02.297Z,16.20
2022-08-30T02:40:29.075Z,16.20
2022-08-30T02:42:55.945Z,16.10
2022-08-30T02:45:24.547Z,16.20
2022-08-30T02:47:51.843Z,16.20
2022-08-30T02:50:18.530Z,16.20
2022-08-30T02:52:48.294Z,16.20
2022-08-30T02:55:15.733Z,16.20
2022-08-30T02:57:43.579Z,16.20
2022-08-30T03:00:11.691Z,16.20
2022-08-30T03:02:38.431Z,16.20
2022-08-30T03:05:05.152Z,16.20
2022-08-30T03:07:31.744Z,16.20
2022-08-30T03:09:58.374Z,16.20
2022-08-30T03:12:25.347Z,16.20
2022-08-30T03:14:52.336Z,16.20
2022-08-30T03:17:19.202Z,16.20
2022-08-30T03:19:46.164Z,16.10
2022-08-30T03:22:13.110Z,16.10
2022-08-30T03:24:40.437Z,16.10
2022-08-30T03:27:08.027Z,16.10
2022-08-30T03:29:36.402Z,16.10
2022-08-30T03:32:03.748Z,16.10
2022-08-30T03:34:30.681Z,16.00
2022-08-30T03:36:58.390Z,16.00
2022-08-30T03:39:24.974Z,16.00
2022-08-30T03:41:52.015Z,16.00
2022-08-30T03:44:18.819Z,16.00
2022-08-30T03:46:46.074Z,15.90
2022-08-30T03:49:12.727Z,15.90
2022-08-30T03:51:39.304Z,15.90
2022-08-30T03:54:05.899Z,15.80
2022-08-30T03:56:32.514Z,15.80
2022-08-30T03:58:59.097Z,15.70
2022-08-30T04:01:25.777Z,15.70
2022-08-30T04:03:52.463Z,15.70
2022-08-30T04:06:19.036Z,15.70
2022-08-30T04:08:46.077Z,15.70
2022-08-30T04:11:14.891Z,15.70
2022-08-30T04:13:41.449Z,15.70
2022-08-30T04:16:08.053Z,15.60
2022-08-30T04:18:35.593Z,15.50
2022-08-30T04:21:02.859Z,15.50
2022-08-30T04:23:29.429Z,15.40
2022-08-30T04:25:56.244Z,15.50
2022-08-30T04:28:23.016Z,15.50
2022-08-30T04:30:49.609Z,15.50
2022-08-30T04:33:16.666Z,15.50
2022-08-30T04:35:44.334Z,15.50
2022-08-30T04:38:10.984Z,15.50
2022-08-30T04:40:37.641Z,15.40
2022-08-30T04:43:04.409Z,15.40
2022-08-30T04:45:31.109Z,15.40
2022-08-30T04:47:57.968Z,15.40
2022-08-30T04:50:25.048Z,15.40
2022-08-30T04:52:51.627Z,15.50
2022-08-30T04:55:20.386Z,15.50
2022-08-30T04:57:47.322Z,15.60
2022-08-30T05:00:14.276Z,15.40
2022-08-30T05:02:41.226Z,15.50
2022-08-30T05:05:27.302Z,15.50
2022-08-30T05:07:54.427Z,15.60
2022-08-30T05:10:21.341Z,15.60
2022-08-30T05:12:47.938Z,15.70
2022-08-30T05:15:14.580Z,15.70
2022-08-30T05:17:41.710Z,15.80
2022-08-30T05:20:09.211Z,15.90
2022-08-30T05:22:36.678Z,16.00
2022-08-30T05:25:03.701Z,16.10
2022-08-30T05:27:30.546Z,16.30
2022-08-30T05:29:57.175Z,16.50
2022-08-30T05:32:23.852Z,16.70
2022-08-30T05:34:51.456Z,16.80
2022-08-30T05:37:18.088Z,17.00
2022-08-30T05:39:51.455Z,17.30
2022-08-30T05:42:18.641Z,17.40
2022-08-30T05:44:45.204Z,17.60
2022-08-30T05:47:11.734Z,17.70
2022-08-30T05:49:38.473Z,18.00
2022-08-30T05:52:05.404Z,18.20
2022-08-30T05:54:32.028Z,18.40
2022-08-30T05:56:58.609Z,18.70
2022-08-30T05:59:25.200Z,18.80
2022-08-30T06:01:56.204Z,19.00
2022-08-30T06:04:22.852Z,19.10
2022-08-30T06:06:49.425Z,19.30
2022-08-30T06:09:15.994Z,19.50
2022-08-30T06:11:43.213Z,19.70
2022-08-30T06:14:10.342Z,19.90
2022-08-30T06:16:38.814Z,20.20
2022-08-30T06:19:06.454Z,20.50
2022-08-30T06:21:37.208Z,20.70
2022-08-30T06:24:05.247Z,21.00
2022-08-30T06:29:03.721Z,21.60
2022-08-30T06:31:30.488Z,21.90
2022-08-30T06:33:57.120Z,22.10
2022-08-30T06:36:24.646Z,22.30
2022-08-30T06:38:52.318Z,22.50
2022-08-30T06:41:20.172Z,22.70
2022-08-30T06:43:49.079Z,22.90
2022-08-30T06:46:19.127Z,23.20
2022-08-30T06:48:48.162Z,23.60
2022-08-30T06:51:15.656Z,23.80
2022-08-30T06:53:42.843Z,24.20
2022-08-30T06:56:11.346Z,24.70
2022-08-30T06:58:38.963Z,25.20
2022-08-30T07:01:06.169Z,26.20
2022-08-30T07:03:32.774Z,26.60
2022-08-30T07:05:59.349Z,27.40
2022-08-30T07:08:27.176Z,27.40
2022-08-30T07:10:54.533Z,27.90
2022-08-30T07:13:22.444Z,28.20
2022-08-30T07:15:49.819Z,28.50
2022-08-30T07:18:35.511Z,29.00
2022-08-30T07:21:09.377Z,29.50
2022-08-30T07:23:36.052Z,29.20
2022-08-30T07:26:06.423Z,29.70
2022-08-30T07:28:33.530Z,30.10
2022-08-30T07:31:00.402Z,30.20
2022-08-30T07:33:26.974Z,30.10
2022-08-30T07:35:53.568Z,30.40
2022-08-30T07:38:20.190Z,30.90
2022-08-30T07:40:47.168Z,31.30
2022-08-30T07:43:13.868Z,31.30
2022-08-30T07:45:40.682Z,31.50
2022-08-30T07:48:07.315Z,31.60
2022-08-30T07:50:34.011Z,31.60
2022-08-30T07:53:00.613Z,31.50
2022-08-30T07:55:27.212Z,31.70
2022-08-30T07:57:53.873Z,31.40
2022-08-30T08:00:20.707Z,31.30
2022-08-30T08:02:47.539Z,31.40
2022-08-30T08:05:17.617Z,31.20
2022-08-30T08:07:45.345Z,31.20
2022-08-30T08:10:13.361Z,31.30
2022-08-30T08:12:40.522Z,31.60
2022-08-30T08:15:08.900Z,31.50
2022-08-30T08:17:35.649Z,32.10
2022-08-30T08:20:02.601Z,32.20
2022-08-30T08:22:29.179Z,32.90
2022-08-30T08:24:55.826Z,33.30
2022-08-30T08:27:24.631Z,33.60
2022-08-30T08:29:51.267Z,33.80
2022-08-30T08:32:17.830Z,34.40
2022-08-30T08:34:44.403Z,35.00
2022-08-30T08:37:11.017Z,35.20
2022-08-30T08:39:37.610Z,35.70
2022-08-30T08:42:07.320Z,35.80
2022-08-30T08:47:28.744Z,36.90
2022-08-30T08:49:57.038Z,37.20
2022-08-30T08:52:53.233Z,37.50
2022-08-30T08:55:21.219Z,36.90
2022-08-30T08:57:48.204Z,37.30
2022-08-30T09:00:15.220Z,37.70
2022-08-30T09:02:44.168Z,37.80
2022-08-30T09:05:12.902Z,37.60
2022-08-30T09:07:43.868Z,37.30
2022-08-30T09:10:10.493Z,37.60
2022-08-30T09:12:37.350Z,38.40
2022-08-30T09:15:25.470Z,39.20
2022-08-30T09:17:52.075Z,39.20
2022-08-30T09:20:37.556Z,39.60
2022-08-30T09:23:13.697Z,39.60
2022-08-30T09:25:49.979Z,40.00
2022-08-30T09:28:20.918Z,39.80
2022-08-30T09:30:59.574Z,40.60
2022-08-30T09:33:28.776Z,41.50
2022-08-30T09:35:55.418Z,40.90
2022-08-30T09:38:32.811Z,41.70
2022-08-30T09:41:02.374Z,41.80
2022-08-30T09:43:32.771Z,41.30
2022-08-30T09:46:02.515Z,41.40
2022-08-30T09:48:44.032Z,40.70
2022-08-30T09:51:10.911Z,40.50
2022-08-30T09:53:38.149Z,40.10
2022-08-30T09:56:10.261Z,40.60
2022-08-30T09:58:42.752Z,39.70
2022-08-30T10:01:20.477Z,40.40
2022-08-30T10:03:51.788Z,40.50
2022-08-30T10:06:24.654Z,40.40
2022-08-30T10:08:59.481Z,40.50
2022-08-30T10:11:36.418Z,40.10
2022-08-30T10:14:08.903Z,40.90
2022-08-30T10:16:40.831Z,41.50
2022-08-30T10:19:22.728Z,41.80
2022-08-30T10:21:49.289Z,41.80
2022-08-30T10:24:20.862Z,41.30
2022-08-30T10:26:50.344Z,40.90
2022-08-30T10:29:22.376Z,40.80
2022-08-30T10:31:52.154Z,40.60
2022-08-30T10:34:42.113Z,40.50
2022-08-30T10:37:11.451Z,41.10
2022-08-30T10:39:40.850Z,41.00
2022-08-30T10:42:27.108Z,40.20
2022-08-30T10:44:59.891Z,38.80
2022-08-30T10:47:37.221Z,37.70
2022-08-30T10:50:06.702Z,36.70
2022-08-30T10:52:38.515Z,35.60
2022-08-30T10:55:05.046Z,34.40
2022-08-30T10:57:32.779Z,33.80
2022-08-30T11:00:11.085Z,33.40
2022-08-30T11:02:43.265Z,33.20
2022-08-30T11:05:09.788Z,33.30
2022-08-30T11:07:55.699Z,33.10
2022-08-30T11:10:30.423Z,33.10
2022-08-30T11:13:09.758Z,33.20
2022-08-30T11:15:51.724Z,33.10
2022-08-30T11:18:18.807Z,32.30
2022-08-30T11:20:50.971Z,31.90
2022-08-30T11:23:24.105Z,31.80
2022-08-30T11:26:02.583Z,31.40
2022-08-30T11:28:35.751Z,31.40
2022-08-30T11:31:06.946Z,31.70
2022-08-30T11:33:42.118Z,32.00
2022-08-30T11:36:13.127Z,32.20
2022-08-30T11:38:39.674Z,32.30
2022-08-30T11:41:11.463Z,32.00
2022-08-30T11:43:39.914Z,32.30
2022-08-30T11:46:15.654Z,32.20
2022-08-30T11:48:51.363Z,32.20
2022-08-30T11:51:36.719Z,32.30
2022-08-30T11:54:23.857Z,32.20
2022-08-30T11:56:59.511Z,32.00
2022-08-30T11:59:26.751Z,31.90
2022-08-30T12:01:53.430Z,32.00
2022-08-30T12:04:20.144Z,31.70
2022-08-30T12:06:46.733Z,31.70
2022-08-30T12:09:16.093Z,31.50
2022-08-30T12:11:55.254Z,31.30
2022-08-30T12:14:42.363Z,30.90
2022-08-30T12:17:33.049Z,31.00
2022-08-30T12:20:00.135Z,31.00
2022-08-30T12:22:30.361Z,31.10
2022-08-30T12:24:57.164Z,31.30
2022-08-30T12:27:24.391Z,31.40
2022-08-30T12:29:52.747Z,31.60
2022-08-30T12:32:22.269Z,31.50
2022-08-30T12:34:53.850Z,31.30
2022-08-30T12:37:28.730Z,31.20
2022-08-30T12:40:07.914Z,31.10
2022-08-30T12:42:36.460Z,31.10
2022-08-30T12:45:06.710Z,31.30
2022-08-30T12:47:42.083Z,31.30
2022-08-30T12:50:15.146Z,31.30
2022-08-30T12:52:43.636Z,31.20
2022-08-30T12:55:19.065Z,31.10
2022-08-30T12:58:00.541Z,31.30
2022-08-30T13:00:30.035Z,31.70
2022-08-30T13:02:58.254Z,31.60
2022-08-30T13:05:34.575Z,31.50
2022-08-30T13:08:08.309Z,31.40
2022-08-30T13:10:35.800Z,31.30
2022-08-30T13:13:04.504Z,31.40
2022-08-30T13:15:40.862Z,31.50
2022-08-30T13:18:27.772Z,31.50
2022-08-30T13:21:13.334Z,31.50
2022-08-30T13:23:40.050Z,31.30
2022-08-30T13:26:07.766Z,31.00
2022-08-30T13:28:52.962Z,30.80
2022-08-30T13:31:20.424Z,30.60
2022-08-30T13:33:52.897Z,30.60
2022-08-30T13:36:24.781Z,30.50
2022-08-30T13:38:51.857Z,30.70
2022-08-30T13:41:21.083Z,30.90
2022-08-30T13:46:35.140Z,31.10
2022-08-30T13:49:06.113Z,31.20
2022-08-30T13:51:32.813Z,31.20
2022-08-30T13:54:00.691Z,31.30
2022-08-30T13:56:31.700Z,31.30
2022-08-30T13:58:59.550Z,31.10
2022-08-30T14:01:26.303Z,31.10
2022-08-30T14:07:11.957Z,31.30
2022-08-30T14:09:26.242Z,31.20
2022-08-30T14:11:52.816Z,31.20
2022-08-30T14:14:39.091Z,31.40
2022-08-30T14:17:06.162Z,31.50
2022-08-30T14:19:32.806Z,31.70
2022-08-30T14:21:59.409Z,31.90
2022-08-30T14:24:25.996Z,32.20
2022-08-30T14:26:53.092Z,32.30
2022-08-30T14:29:25.903Z,32.60
2022-08-30T14:31:52.867Z,32.40
2022-08-30T14:34:19.778Z,32.40
2022-08-30T14:36:46.642Z,32.30
2022-08-30T14:39:15.184Z,32.00
2022-08-30T14:41:43.889Z,31.70
2022-08-30T14:44:11.250Z,31.40
2022-08-30T14:46:37.861Z,31.30
2022-08-30T14:49:05.779Z,31.20
2022-08-30T14:51:32.619Z,30.90
2022-08-30T14:54:00.534Z,30.70
2022-08-30T14:56:27.172Z,30.20
2022-08-30T14:58:54.603Z,30.00
2022-08-30T15:01:22.555Z,29.70
2022-08-30T15:03:51.064Z,29.60
2022-08-30T15:06:18.042Z,29.50
2022-08-30T15:08:47.815Z,29.50
2022-08-30T15:11:17.298Z,29.20
2022-08-30T15:13:46.635Z,29.20
2022-08-30T15:16:14.856Z,29.20
2022-08-30T15:18:41.713Z,28.90
2022-08-30T15:21:08.946Z,28.80
2022-08-30T15:23:36.433Z,28.60
2022-08-30T15:26:03.353Z,28.50
2022-08-30T15:28:30.185Z,28.50
2022-08-30T15:30:56.839Z,28.50
2022-08-30T15:33:23.521Z,28.40
2022-08-30T15:35:52.102Z,28.40
2022-08-30T15:38:19.255Z,28.50
2022-08-30T15:40:49.527Z,28.60
2022-08-30T15:43:16.224Z,28.70
2022-08-30T15:45:42.930Z,28.80
2022-08-30T15:48:09.867Z,28.70
2022-08-30T15:50:36.443Z,28.60
2022-08-30T15:53:03.498Z,28.60
2022-08-30T15:55:30.061Z,28.50
2022-08-30T15:57:56.646Z,28.50
2022-08-30T16:00:23.420Z,28.40
2022-08-30T16:02:52.003Z,28.30
2022-08-30T16:05:19.007Z,28.20
2022-08-30T16:07:46.704Z,28.00
2022-08-30T16:10:13.914Z,27.90
2022-08-30T16:12:40.721Z,27.90
2022-08-30T16:15:07.563Z,27.80
2022-08-30T16:17:34.496Z,27.70
2022-08-30T16:20:01.125Z,27.60
2022-08-30T16:22:27.729Z,27.80
2022-08-30T16:24:54.331Z,27.70
2022-08-30T16:27:22.068Z,27.80
2022-08-30T16:29:49.987Z,27.70
2022-08-30T16:32:17.370Z,27.70
2022-08-30T16:34:43.998Z,27.70
2022-08-30T16:37:10.690Z,27.80
2022-08-30T16:39:37.302Z,27.60
2022-08-30T16:42:04.512Z,27.50
2022-08-30T16:44:33.531Z,27.40
2022-08-30T16:47:01.613Z,27.30
2022-08-30T16:49:28.295Z,27.30
2022-08-30T16:51:54.993Z,27.20
2022-08-30T16:54:22.166Z,27.20
2022-08-30T16:56:48.909Z,27.20
2022-08-30T16:59:16.763Z,27.10
2022-08-30T17:01:44.087Z,27.00
2022-08-30T17:04:11.706Z,27.00
2022-08-30T17:06:42.571Z,27.00
2022-08-30T17:09:09.230Z,26.90
2022-08-30T17:11:36.799Z,26.90
2022-08-30T17:14:04.517Z,26.80
2022-08-30T17:16:31.307Z,26.70
2022-08-30T17:18:59.827Z,26.50
2022-08-30T17:21:28.963Z,26.50
2022-08-30T17:23:56.769Z,26.30
2022-08-30T17:26:30.150Z,26.20
2022-08-30T17:28:56.750Z,26.10
2022-08-30T17:31:27.650Z,26.10
2022-08-30T17:34:00.553Z,26.00
2022-08-30T17:36:27.974Z,25.90
2022-08-30T17:38:54.778Z,25.80
2022-08-30T17:41:21.336Z,25.80
2022-08-30T17:43:47.878Z,25.70
2022-08-30T17:46:20.879Z,25.60
2022-08-30T17:48:47.591Z,25.50
2022-08-30T17:51:24.482Z,25.40
2022-08-30T17:53:51.106Z,25.40
2022-08-30T17:56:18.060Z,25.30
2022-08-30T17:58:45.100Z,25.20
2022-08-30T18:01:13.457Z,25.10
2022-08-30T18:03:40.462Z,25.00
2022-08-30T18:06:07.282Z,25.00
2022-08-30T18:08:34.151Z,24.90
2022-08-30T18:11:01.306Z,24.80
2022-08-30T18:13:28.143Z,24.70
2022-08-30T18:15:56.689Z,24.60
2022-08-30T18:18:24.031Z,24.50
2022-08-30T18:20:50.859Z,24.40
2022-08-30T18:23:17.674Z,24.30
2022-08-30T18:25:50.651Z,24.20
2022-08-30T18:28:17.399Z,24.10
2022-08-30T18:30:45.387Z,24.00
2022-08-30T18:33:11.975Z,24.00
2022-08-30T18:35:42.894Z,23.90
2022-08-30T18:38:12.171Z,23.80
2022-08-30T18:40:38.829Z,23.80
2022-08-30T18:43:09.776Z,23.70
2022-08-30T18:45:42.427Z,23.70
2022-08-30T18:48:09.567Z,23.60
2022-08-30T18:50:37.054Z,23.50
2022-08-30T18:53:04.159Z,23.50
2022-08-30T18:55:31.047Z,23.40
2022-08-30T18:57:57.931Z,23.60
2022-08-30T19:00:28.813Z,23.30
2022-08-30T19:02:56.244Z,23.20
2022-08-30T19:05:23.702Z,23.20
2022-08-30T19:07:51.718Z,23.10
2022-08-30T19:10:23.365Z,23.10
2022-08-30T19:12:50.706Z,23.00
2022-08-30T19:15:17.923Z,23.00
2022-08-30T19:17:46.005Z,22.90
2022-08-30T19:20:14.417Z,22.90
2022-08-30T19:25:28.022Z,22.70
2022-08-30T19:27:55.743Z,22.70
2022-08-30T19:30:29.357Z,22.60
2022-08-30T19:32:56.836Z,22.60
2022-08-30T19:35:24.708Z,22.50
2022-08-30T19:37:51.348Z,22.50
2022-08-30T19:40:18.589Z,22.40
2022-08-30T19:42:46.627Z,22.40
2022-08-30T19:45:14.994Z,22.40
2022-08-30T19:47:41.545Z,22.30
2022-08-30T19:50:08.484Z,22.20
2022-08-30T19:52:36.223Z,22.10
2022-08-30T19:55:04.536Z,22.10
2022-08-30T19:57:31.259Z,22.10
2022-08-30T19:59:57.975Z,22.00
2022-08-30T20:02:25.669Z,22.00
2022-08-30T20:04:53.851Z,21.90
2022-08-30T20:10:10.171Z,21.80
2022-08-30T20:12:37.303Z,21.70
2022-08-30T20:15:09.225Z,21.70
2022-08-30T20:18:02.080Z,21.60
2022-08-30T20:20:23.318Z,21.60
2022-08-30T20:22:57.144Z,21.50
2022-08-30T20:24:33.326Z,22.80
2022-08-30T20:25:23.862Z,21.50
2022-08-30T20:27:50.479Z,21.40
2022-08-30T20:30:17.489Z,21.30
2022-08-30T20:32:46.623Z,21.20
2022-08-30T20:35:15.540Z,21.20
2022-08-30T20:37:43.172Z,21.30
2022-08-30T20:40:15.405Z,21.20
2022-08-30T20:42:45.455Z,21.20
2022-08-30T20:45:16.001Z,21.20
2022-08-30T20:47:43.120Z,21.10
2022-08-30T20:50:14.381Z,21.00
2022-08-30T20:52:41.336Z,21.00
2022-08-30T20:55:08.529Z,21.00
2022-08-30T20:57:35.225Z,21.00
2022-08-30T21:00:02.594Z,20.90
2022-08-30T21:02:29.633Z,20.90
2022-08-30T21:04:56.348Z,20.80
2022-08-30T21:07:23.013Z,20.80
2022-08-30T21:09:50.329Z,20.70
2022-08-30T21:12:16.964Z,20.70
2022-08-30T21:14:43.458Z,20.70
2022-08-30T21:17:10.295Z,20.70
2022-08-30T21:19:39.873Z,20.60
2022-08-30T21:22:10.449Z,20.60
2022-08-30T21:24:37.100Z,20.60
2022-08-30T21:27:03.735Z,20.50
2022-08-30T21:29:33.042Z,20.50
2022-08-30T21:31:59.813Z,20.40
2022-08-30T21:34:26.426Z,20.40
2022-08-30T21:36:53.254Z,20.30
2022-08-30T21:39:20.289Z,20.30
2022-08-30T21:41:47.982Z,20.30
2022-08-30T21:44:17.355Z,20.30
2022-08-30T21:46:44.567Z,20.20
2022-08-30T21:49:12.198Z,20.20
2022-08-30T21:51:40.916Z,20.20
2022-08-30T21:54:09.586Z,20.20
2022-08-30T21:56:37.640Z,20.20
2022-08-30T21:59:05.158Z,20.10
2022-08-30T22:01:32.493Z,20.10
2022-08-30T22:04:00.554Z,20.10
2022-08-30T22:06:29.290Z,20.10
2022-08-30T22:08:58.348Z,20.10
2022-08-30T22:11:25.862Z,20.00
2022-08-30T22:13:53.857Z,20.10
2022-08-30T22:16:21.084Z,19.90
2022-08-30T22:18:47.692Z,19.80
2022-08-30T22:21:15.858Z,19.80
2022-08-30T22:23:42.764Z,19.70
2022-08-30T22:26:09.843Z,19.60
2022-08-30T22:28:36.528Z,19.60
2022-08-30T22:31:07.465Z,19.50
2022-08-30T22:33:34.600Z,19.40
2022-08-30T22:36:05.554Z,19.40
2022-08-30T22:38:32.276Z,19.30
2022-08-30T22:40:58.903Z,19.30
2022-08-30T22:43:25.481Z,19.20
2022-08-30T22:45:52.097Z,19.20
2022-08-30T22:48:18.947Z,19.20
2022-08-30T22:50:45.560Z,19.10
2022-08-30T22:53:12.141Z,19.10
2022-08-30T22:55:39.948Z,19.10
2022-08-30T22:58:06.727Z,19.10
2022-08-30T23:00:33.367Z,19.00
2022-08-30T23:03:00.022Z,18.90
2022-08-30T23:05:26.597Z,18.90
2022-08-30T23:07:53.337Z,18.80
2022-08-30T23:10:20.497Z,18.80
2022-08-30T23:12:47.102Z,18.80
2022-08-30T23:15:14.847Z,18.80
2022-08-30T23:17:41.452Z,18.70
2022-08-30T23:20:08.362Z,18.60
2022-08-30T23:22:34.925Z,18.60
2022-08-30T23:25:20.020Z,18.50
2022-08-30T23:28:05.608Z,18.50
2022-08-30T23:30:50.891Z,18.40
2022-08-30T23:33:36.127Z,18.40
2022-08-30T23:36:32.014Z,18.30
2022-08-30T23:39:17.183Z,18.30
2022-08-30T23:42:02.624Z,18.30
2022-08-30T23:44:47.727Z,18.30
2022-08-30T23:47:33.030Z,18.30
2022-08-30T23:50:18.229Z,18.30
2022-08-30T23:53:03.786Z,18.30
2022-08-30T23:55:49.394Z,18.30
2022-08-30T23:58:35.443Z,18.30
